Caswell Beach, North Carolina
Current Conditions -  °F | °C
As of 8:55 PM on Wednesday 24 Dec 2014 (Local Time) from KSUT Reporting Station
Haze Haze  
Wind Chill: 62°   Ceiling: 10000
Heat Index: 62°   Visibility: 3mi
Dew Point: 61°   Wind: 3mph
Humidity: 97%   Direction: 160°SSE
Pressure: 29.78"   Gusts: NA
Location:  33.9216°N, 78.1244°W
Report Text: KSUT 250155Z AUTO 16003KT 3SM BR BKN100 17/16 A2978 RMK AO2 T01670163
Loading
Personal Weather Stations






























Interactive Weather Map New forecast layout! Learn more

10-Day Weather Forecast

Advertisements
Track Severe Weather on mobile